Time;durP1;ratioP1;P1;durP2;ratioP2;P2;SDS_P1;SDS_P2;PMS_P1;PMS_P2;Temp;Humidity;BMP_temperature;BMP_pressure;BME280_temperature;BME280_humidity;BME280_pressure;Samples;Min_cycle;Max_cycle;Signal;HPM_P1;HPM_P2
2021/06/07 00:00:16;;;;;;;23.15;15.93;;;;;;;;;;5004480;28;20060;-60
2021/06/07 00:02:41;;;;;;;23.50;15.93;;;;;;;;;;5002285;28;20022;-60
2021/06/07 00:05:07;;;;;;;22.55;16.10;;;;;;;;;;5007664;28;20036;-60
2021/06/07 00:07:33;;;;;;;22.65;16.55;;;;;;;;;;5002223;28;20072;-60
2021/06/07 00:09:58;;;;;;;23.38;15.98;;;;;;;;;;5006571;28;20026;-60
2021/06/07 00:12:24;;;;;;;23.65;15.85;;;;;;;;;;5003111;28;20026;-60
2021/06/07 00:14:49;;;;;;;23.80;15.65;;;;;;;;;;5008252;28;20030;-60
2021/06/07 00:17:14;;;;;;;22.48;15.43;;;;;;;;;;5009413;28;20034;-61
2021/06/07 00:19:41;;;;;;;26.08;15.65;;;;;;;;;;5003277;28;20396;-60
2021/06/07 00:22:09;;;;;;;24.80;16.33;;;;;;;;;;5003688;28;20033;-61
2021/06/07 00:24:34;;;;;;;23.77;16.15;;;;;;;;;;5000391;28;20030;-60
2021/06/07 00:27:00;;;;;;;24.05;15.98;;;;;;;;;;5000822;28;20083;-60
2021/06/07 00:29:26;;;;;;;23.20;15.63;;;;;;;;;;5000189;28;20030;-60
2021/06/07 00:31:52;;;;;;;25.10;15.60;;;;;;;;;;4997931;28;20478;-60
2021/06/07 00:34:18;;;;;;;24.58;16.23;;;;;;;;;;5006072;28;20042;-61
2021/06/07 00:36:43;;;;;;;22.95;15.98;;;;;;;;;;5005685;28;20026;-61
2021/06/07 00:39:12;;;;;;;23.48;14.52;;;;;;;;;;5003465;28;20053;-60
2021/06/07 00:41:39;;;;;;;23.08;15.43;;;;;;;;;;5002734;28;20033;-60
2021/06/07 00:44:10;;;;;;;28.00;17.85;;;;;;;;;;5001197;28;20034;-61
2021/06/07 00:46:36;;;;;;;24.17;16.77;;;;;;;;;;4999494;28;20033;-60
2021/06/07 00:49:05;;;;;;;23.80;15.20;;;;;;;;;;4998497;28;20044;-61
2021/06/07 00:51:30;;;;;;;25.13;15.82;;;;;;;;;;4999093;28;20025;-60
2021/06/07 00:53:55;;;;;;;22.67;15.35;;;;;;;;;;5007575;28;20484;-60
2021/06/07 00:56:21;;;;;;;22.42;15.82;;;;;;;;;;5003913;28;20034;-60
2021/06/07 00:58:48;;;;;;;23.58;16.30;;;;;;;;;;5001434;28;20812;-60
2021/06/07 01:01:16;;;;;;;23.88;16.02;;;;;;;;;;5016071;28;20086;-60
2021/06/07 01:03:43;;;;;;;23.02;16.75;;;;;;;;;;4999216;28;20026;-60
2021/06/07 01:06:09;;;;;;;23.20;14.90;;;;;;;;;;5005453;28;20034;-60
2021/06/07 01:08:35;;;;;;;26.00;17.00;;;;;;;;;;5001120;28;20120;-61
2021/06/07 01:11:01;;;;;;;24.27;16.63;;;;;;;;;;5000277;28;20085;-60
2021/06/07 01:13:27;;;;;;;25.63;17.35;;;;;;;;;;5000428;28;20030;-60
2021/06/07 01:15:54;;;;;;;22.02;16.00;;;;;;;;;;5004716;28;20555;-60
2021/06/07 01:18:21;;;;;;;26.50;17.17;;;;;;;;;;5004862;28;20034;-60
2021/06/07 01:20:49;;;;;;;24.95;17.15;;;;;;;;;;4999057;28;20045;-61
2021/06/07 01:23:14;;;;;;;24.25;17.20;;;;;;;;;;5001500;28;20546;-61
2021/06/07 01:25:41;;;;;;;22.77;15.88;;;;;;;;;;4998593;28;20037;-61
2021/06/07 01:28:09;;;;;;;23.83;15.88;;;;;;;;;;5005440;28;20496;-59
2021/06/07 01:30:39;;;;;;;24.80;16.70;;;;;;;;;;5002151;28;20033;-60
2021/06/07 01:33:06;;;;;;;22.77;17.23;;;;;;;;;;4997885;28;20503;-61
2021/06/07 01:35:33;;;;;;;25.30;17.05;;;;;;;;;;5000082;28;20048;-60
2021/06/07 01:37:58;;;;;;;24.58;17.17;;;;;;;;;;5017857;28;20026;-60
2021/06/07 01:40:31;;;;;;;22.33;16.73;;;;;;;;;;5005926;28;20087;-60
2021/06/07 01:42:57;;;;;;;26.05;17.50;;;;;;;;;;4999310;28;20041;-61
2021/06/07 01:45:26;;;;;;;26.25;17.40;;;;;;;;;;5005716;28;20459;-60
2021/06/07 01:47:53;;;;;;;25.27;17.95;;;;;;;;;;5007324;28;20172;-60
2021/06/07 01:50:19;;;;;;;28.80;18.45;;;;;;;;;;4995244;28;20374;-60
2021/06/07 01:52:48;;;;;;;25.27;15.82;;;;;;;;;;5001676;28;20044;-61
2021/06/07 01:55:19;;;;;;;24.77;17.07;;;;;;;;;;5003761;28;20022;-60
2021/06/07 01:57:46;;;;;;;24.58;16.90;;;;;;;;;;4999495;28;20034;-60
2021/06/07 02:00:16;;;;;;;28.55;16.95;;;;;;;;;;4996387;28;20030;-60
2021/06/07 02:02:46;;;;;;;24.70;16.20;;;;;;;;;;4999069;28;20030;-60
2021/06/07 02:05:14;;;;;;;28.63;18.83;;;;;;;;;;4998926;28;20033;-60
2021/06/07 02:07:48;;;;;;;30.02;16.08;;;;;;;;;;5001661;28;20121;-60
2021/06/07 02:10:15;;;;;;;23.92;16.25;;;;;;;;;;5000392;28;20036;-60
2021/06/07 02:12:41;;;;;;;23.90;16.95;;;;;;;;;;5006381;28;20033;-60
2021/06/07 02:15:09;;;;;;;25.92;17.42;;;;;;;;;;5002894;28;20054;-60
2021/06/07 02:17:35;;;;;;;27.60;17.17;;;;;;;;;;5000222;28;20534;-61
2021/06/07 02:20:01;;;;;;;24.83;16.15;;;;;;;;;;4998742;28;20042;-60
2021/06/07 02:22:27;;;;;;;24.02;16.67;;;;;;;;;;4999647;28;20598;-61
2021/06/07 02:24:52;;;;;;;23.95;17.17;;;;;;;;;;5000952;28;20117;-61
2021/06/07 02:27:17;;;;;;;25.42;16.02;;;;;;;;;;5002941;28;20034;-61
2021/06/07 02:29:43;;;;;;;25.85;17.85;;;;;;;;;;5000648;28;20029;-60
2021/06/07 02:32:08;;;;;;;23.40;15.63;;;;;;;;;;4998457;28;20487;-61
2021/06/07 02:34:36;;;;;;;24.48;15.43;;;;;;;;;;5002820;28;20071;-61
2021/06/07 02:37:02;;;;;;;23.60;16.17;;;;;;;;;;5000493;28;20451;-61
2021/06/07 02:39:27;;;;;;;20.92;15.70;;;;;;;;;;5002578;28;20030;-61
2021/06/07 02:41:53;;;;;;;24.73;17.35;;;;;;;;;;5002909;28;20376;-61
2021/06/07 02:44:20;;;;;;;25.73;17.98;;;;;;;;;;5005470;28;20041;-61
2021/06/07 02:46:46;;;;;;;27.90;17.48;;;;;;;;;;5000149;28;20096;-61
2021/06/07 02:49:11;;;;;;;22.88;15.77;;;;;;;;;;5002403;28;20520;-61
2021/06/07 02:51:37;;;;;;;25.27;17.65;;;;;;;;;;4998791;28;20038;-61
2021/06/07 02:54:03;;;;;;;26.33;16.17;;;;;;;;;;4998654;28;20558;-60
2021/06/07 02:56:29;;;;;;;24.08;15.90;;;;;;;;;;5005810;28;20028;-61
2021/06/07 02:58:54;;;;;;;21.10;15.35;;;;;;;;;;4994547;28;20023;-59
2021/06/07 03:01:19;;;;;;;24.17;15.50;;;;;;;;;;5003256;28;20248;-61
2021/06/07 03:03:45;;;;;;;23.83;15.80;;;;;;;;;;5002545;28;20029;-61
2021/06/07 03:06:10;;;;;;;22.35;15.80;;;;;;;;;;5007957;28;20057;-60
2021/06/07 03:08:36;;;;;;;23.77;15.73;;;;;;;;;;5007194;28;20028;-60
2021/06/07 03:11:08;;;;;;;20.88;15.55;;;;;;;;;;5001667;28;21178;-61
2021/06/07 03:13:34;;;;;;;22.27;15.63;;;;;;;;;;5002280;28;20025;-61
2021/06/07 03:16:01;;;;;;;23.48;16.80;;;;;;;;;;5001312;28;20511;-61
2021/06/07 03:18:27;;;;;;;24.33;16.67;;;;;;;;;;5000131;28;20509;-60
2021/06/07 03:20:54;;;;;;;27.52;17.00;;;;;;;;;;5002562;28;20292;-61
2021/06/07 03:23:22;;;;;;;25.15;16.42;;;;;;;;;;5005072;28;20124;-61
2021/06/07 03:25:49;;;;;;;22.80;16.67;;;;;;;;;;5000666;28;20116;-61
2021/06/07 03:28:17;;;;;;;26.42;16.70;;;;;;;;;;5005850;28;20030;-60
2021/06/07 03:30:43;;;;;;;22.90;15.73;;;;;;;;;;5004740;28;20400;-60
2021/06/07 03:33:10;;;;;;;23.52;15.57;;;;;;;;;;4994612;28;20049;-61
2021/06/07 03:35:38;;;;;;;24.95;16.02;;;;;;;;;;5004225;28;20503;-61
2021/06/07 03:38:05;;;;;;;21.08;14.77;;;;;;;;;;5001972;28;20493;-61
2021/06/07 03:40:33;;;;;;;19.83;15.32;;;;;;;;;;4996610;28;20091;-60
2021/06/07 03:42:59;;;;;;;22.80;14.90;;;;;;;;;;5004055;28;20026;-61
2021/06/07 03:45:25;;;;;;;21.08;15.05;;;;;;;;;;5000063;28;20022;-61
2021/06/07 03:47:51;;;;;;;21.35;15.65;;;;;;;;;;5001449;28;20083;-60
2021/06/07 03:50:19;;;;;;;23.83;15.95;;;;;;;;;;5004743;28;20029;-59
2021/06/07 03:52:45;;;;;;;21.90;15.37;;;;;;;;;;5001694;28;20038;-60
2021/06/07 03:55:13;;;;;;;24.58;16.13;;;;;;;;;;5005968;28;20041;-60
2021/06/07 03:57:38;;;;;;;21.25;14.82;;;;;;;;;;5003517;28;20511;-60
2021/06/07 04:00:06;;;;;;;23.67;16.20;;;;;;;;;;5003312;28;20033;-60
2021/06/07 04:02:32;;;;;;;28.33;18.90;;;;;;;;;;5004695;28;20037;-60
2021/06/07 04:04:57;;;;;;;29.02;17.30;;;;;;;;;;5000949;28;20400;-60
2021/06/07 04:07:23;;;;;;;29.85;18.98;;;;;;;;;;5004682;28;20156;-60
2021/06/07 04:09:48;;;;;;;32.58;17.30;;;;;;;;;;5004863;28;20040;-60
2021/06/07 04:12:14;;;;;;;29.35;18.45;;;;;;;;;;5009003;28;20456;-60
2021/06/07 04:14:39;;;;;;;32.67;19.25;;;;;;;;;;5005388;28;20086;-59
2021/06/07 04:17:05;;;;;;;32.05;18.45;;;;;;;;;;5007228;28;20034;-60
2021/06/07 04:19:30;;;;;;;32.90;19.42;;;;;;;;;;4997466;28;20026;-61
2021/06/07 04:21:56;;;;;;;31.20;17.98;;;;;;;;;;5005587;28;20021;-60
2021/06/07 04:24:21;;;;;;;33.42;18.88;;;;;;;;;;5004693;28;20033;-60
2021/06/07 04:26:47;;;;;;;32.20;19.23;;;;;;;;;;5007734;28;20573;-60
2021/06/07 04:29:12;;;;;;;31.42;18.52;;;;;;;;;;5007448;28;20026;-61
2021/06/07 04:31:38;;;;;;;32.47;18.65;;;;;;;;;;5008553;28;20076;-60
2021/06/07 04:34:03;;;;;;;31.35;18.33;;;;;;;;;;5005100;28;20052;-60
2021/06/07 04:36:28;;;;;;;37.13;19.35;;;;;;;;;;5004876;28;20482;-60
2021/06/07 04:38:54;;;;;;;33.83;18.38;;;;;;;;;;5003629;28;20029;-60
2021/06/07 04:41:19;;;;;;;30.88;17.70;;;;;;;;;;5003778;28;20258;-61
2021/06/07 04:43:45;;;;;;;32.45;18.35;;;;;;;;;;5005370;28;20029;-60
2021/06/07 04:46:10;;;;;;;31.40;18.52;;;;;;;;;;5005222;28;20045;-60
2021/06/07 04:48:36;;;;;;;37.05;20.40;;;;;;;;;;5002818;28;20034;-60
2021/06/07 04:51:02;;;;;;;41.67;20.23;;;;;;;;;;4998683;28;20030;-60
2021/06/07 04:53:27;;;;;;;31.48;18.35;;;;;;;;;;4999887;28;20042;-61
2021/06/07 04:55:53;;;;;;;35.13;19.67;;;;;;;;;;5002996;28;20112;-60
2021/06/07 04:58:20;;;;;;;32.15;18.45;;;;;;;;;;5004318;28;20034;-60
2021/06/07 05:00:51;;;;;;;33.70;18.23;;;;;;;;;;5000242;28;20539;-60
2021/06/07 05:03:17;;;;;;;32.15;17.48;;;;;;;;;;5008276;28;20484;-60
2021/06/07 05:05:43;;;;;;;31.27;17.80;;;;;;;;;;5000664;28;20104;-60
2021/06/07 05:08:08;;;;;;;32.72;18.02;;;;;;;;;;5006144;28;20528;-60
2021/06/07 05:10:35;;;;;;;33.00;19.02;;;;;;;;;;5004734;28;20026;-59
2021/06/07 05:13:00;;;;;;;25.80;15.35;;;;;;;;;;5001161;28;20041;-59
2021/06/07 05:15:26;;;;;;;31.30;17.92;;;;;;;;;;5000911;28;20022;-59
2021/06/07 05:17:51;;;;;;;30.85;17.65;;;;;;;;;;5000141;28;20082;-59
2021/06/07 05:20:23;;;;;;;33.95;18.77;;;;;;;;;;5003810;28;20504;-58
2021/06/07 05:22:49;;;;;;;35.15;18.40;;;;;;;;;;5006471;28;20018;-59
2021/06/07 05:25:17;;;;;;;32.92;18.02;;;;;;;;;;5019041;28;20481;-59
2021/06/07 05:27:42;;;;;;;34.83;18.60;;;;;;;;;;4997451;28;20034;-60
2021/06/07 05:30:09;;;;;;;31.58;16.55;;;;;;;;;;5003865;28;20033;-60
2021/06/07 05:32:35;;;;;;;33.45;16.95;;;;;;;;;;4999236;28;20034;-60
2021/06/07 05:35:01;;;;;;;33.92;17.35;;;;;;;;;;5000684;28;20048;-59
2021/06/07 05:37:26;;;;;;;27.80;16.23;;;;;;;;;;5003536;28;20064;-60
2021/06/07 05:39:52;;;;;;;35.40;17.13;;;;;;;;;;4998696;28;20396;-59
2021/06/07 05:42:18;;;;;;;32.13;16.92;;;;;;;;;;5007840;28;20505;-60
2021/06/07 05:44:44;;;;;;;31.15;16.90;;;;;;;;;;4998084;28;20034;-60
2021/06/07 05:47:09;;;;;;;30.65;17.13;;;;;;;;;;4999596;28;20030;-60
2021/06/07 05:49:38;;;;;;;35.33;19.30;;;;;;;;;;4998684;28;20376;-60
2021/06/07 05:52:06;;;;;;;36.23;19.00;;;;;;;;;;4996116;28;20032;-60
2021/06/07 05:54:31;;;;;;;30.85;16.52;;;;;;;;;;5001246;28;20021;-60
2021/06/07 05:56:56;;;;;;;35.80;19.83;;;;;;;;;;5007076;28;20018;-60
2021/06/07 05:59:22;;;;;;;29.05;16.30;;;;;;;;;;5005504;28;20096;-60
2021/06/07 06:01:48;;;;;;;31.50;17.65;;;;;;;;;;5000000;28;20113;-60
2021/06/07 06:04:13;;;;;;;30.45;16.77;;;;;;;;;;5002075;28;20038;-60
2021/06/07 06:06:39;;;;;;;32.72;17.05;;;;;;;;;;5002062;28;20029;-60
2021/06/07 06:09:04;;;;;;;29.83;16.48;;;;;;;;;;5002519;28;20494;-60
2021/06/07 06:11:30;;;;;;;29.15;16.52;;;;;;;;;;4985739;28;20034;-61
2021/06/07 06:13:56;;;;;;;29.58;17.10;;;;;;;;;;5001157;28;20033;-60
2021/06/07 06:16:22;;;;;;;32.38;18.75;;;;;;;;;;5013242;28;20448;-60
2021/06/07 06:18:48;;;;;;;32.22;17.95;;;;;;;;;;5001254;28;20127;-60
2021/06/07 06:21:14;;;;;;;33.50;17.30;;;;;;;;;;5001907;28;20476;-60
2021/06/07 06:23:40;;;;;;;30.40;16.87;;;;;;;;;;4997366;28;20029;-60
2021/06/07 06:26:08;;;;;;;29.00;15.05;;;;;;;;;;5002709;28;20049;-60
2021/06/07 06:28:35;;;;;;;33.22;19.15;;;;;;;;;;5005633;28;20030;-60
2021/06/07 06:31:06;;;;;;;30.85;17.23;;;;;;;;;;5006250;28;20121;-60
2021/06/07 06:33:32;;;;;;;30.85;17.30;;;;;;;;;;5000289;28;20085;-60
2021/06/07 06:35:58;;;;;;;29.27;16.50;;;;;;;;;;5003134;28;20032;-60
2021/06/07 06:38:24;;;;;;;19.25;12.02;;;;;;;;;;4997627;28;20030;-65
2021/06/07 06:40:52;;;;;;;22.45;13.30;;;;;;;;;;5004951;28;20064;-61
2021/06/07 06:43:19;;;;;;;23.60;14.05;;;;;;;;;;4998553;28;20410;-60
2021/06/07 06:45:44;;;;;;;22.88;13.82;;;;;;;;;;5004908;28;20041;-60
2021/06/07 06:48:10;;;;;;;23.95;14.98;;;;;;;;;;4999672;28;20033;-61
2021/06/07 06:50:39;;;;;;;19.40;12.20;;;;;;;;;;5000593;28;20080;-60
2021/06/07 06:53:10;;;;;;;21.17;12.45;;;;;;;;;;5005189;28;20049;-60
2021/06/07 06:55:37;;;;;;;23.48;13.25;;;;;;;;;;5001788;28;20033;-60
2021/06/07 06:58:04;;;;;;;20.10;12.25;;;;;;;;;;4999136;28;20395;-61
2021/06/07 07:00:35;;;;;;;23.58;13.68;;;;;;;;;;5000529;28;20022;-61
2021/06/07 07:03:01;;;;;;;21.75;13.15;;;;;;;;;;4998340;28;20321;-61
2021/06/07 07:05:26;;;;;;;16.52;11.77;;;;;;;;;;4998241;28;20030;-61
2021/06/07 07:07:52;;;;;;;18.45;11.77;;;;;;;;;;5005119;28;20037;-61
2021/06/07 07:10:17;;;;;;;16.23;10.85;;;;;;;;;;4996692;28;20034;-61
2021/06/07 07:12:42;;;;;;;17.77;10.52;;;;;;;;;;5003552;28;20036;-61
2021/06/07 07:15:09;;;;;;;15.02;10.07;;;;;;;;;;4994065;28;20519;-61
2021/06/07 07:17:34;;;;;;;14.45;9.60;;;;;;;;;;4994093;28;20373;-60
2021/06/07 07:19:59;;;;;;;14.82;9.65;;;;;;;;;;5000973;28;20064;-61
2021/06/07 07:22:25;;;;;;;14.30;9.98;;;;;;;;;;4995760;28;20038;-60
2021/06/07 07:24:51;;;;;;;13.18;8.75;;;;;;;;;;4995275;28;20115;-61
2021/06/07 07:27:19;;;;;;;13.85;9.77;;;;;;;;;;5002865;28;20037;-60
2021/06/07 07:29:45;;;;;;;13.45;9.25;;;;;;;;;;5006213;28;20514;-60
2021/06/07 07:32:11;;;;;;;14.95;9.85;;;;;;;;;;5002628;28;20125;-60
2021/06/07 07:34:37;;;;;;;16.27;10.35;;;;;;;;;;4996980;28;20097;-60
2021/06/07 07:37:04;;;;;;;14.18;9.70;;;;;;;;;;4992040;28;20394;-60
2021/06/07 07:39:29;;;;;;;12.38;8.48;;;;;;;;;;4997980;28;20054;-60
2021/06/07 07:41:56;;;;;;;14.15;9.13;;;;;;;;;;5001932;28;20040;-60
2021/06/07 07:44:24;;;;;;;15.65;9.43;;;;;;;;;;4999278;28;20573;-60
2021/06/07 07:46:51;;;;;;;11.80;8.02;;;;;;;;;;5007108;28;20513;-61
2021/06/07 07:49:16;;;;;;;13.73;8.63;;;;;;;;;;5009271;28;20120;-60
2021/06/07 07:51:42;;;;;;;12.23;8.60;;;;;;;;;;5002979;28;20108;-60
2021/06/07 07:54:09;;;;;;;13.45;8.20;;;;;;;;;;4999486;28;20029;-60
2021/06/07 07:56:35;;;;;;;12.57;8.52;;;;;;;;;;5001996;28;20038;-61
2021/06/07 07:59:00;;;;;;;13.85;8.98;;;;;;;;;;5001237;28;20461;-61
2021/06/07 08:01:26;;;;;;;13.00;8.10;;;;;;;;;;5004995;28;20029;-60
2021/06/07 08:03:51;;;;;;;12.93;8.65;;;;;;;;;;5010322;28;20195;-60
2021/06/07 08:06:17;;;;;;;12.48;7.40;;;;;;;;;;5007108;28;20025;-60
2021/06/07 08:08:43;;;;;;;10.63;7.43;;;;;;;;;;4999009;28;20108;-60
2021/06/07 08:11:09;;;;;;;11.63;7.82;;;;;;;;;;4997878;28;20068;-60
2021/06/07 08:13:34;;;;;;;10.13;7.32;;;;;;;;;;5001888;28;20056;-60
2021/06/07 08:16:00;;;;;;;11.50;8.38;;;;;;;;;;5002184;28;20125;-60
2021/06/07 08:18:25;;;;;;;9.80;7.28;;;;;;;;;;5005602;28;20030;-60
2021/06/07 08:20:51;;;;;;;10.48;7.47;;;;;;;;;;5015455;28;20052;-60
2021/06/07 08:23:17;;;;;;;10.10;6.88;;;;;;;;;;4998040;28;20044;-59
2021/06/07 08:25:43;;;;;;;11.00;8.10;;;;;;;;;;4994711;28;20031;-60
2021/06/07 08:28:08;;;;;;;12.27;7.63;;;;;;;;;;4998081;28;20064;-60
2021/06/07 08:30:34;;;;;;;10.55;7.25;;;;;;;;;;4999914;28;20625;-60
2021/06/07 08:33:01;;;;;;;12.55;7.90;;;;;;;;;;5003039;28;20065;-61
2021/06/07 08:35:26;;;;;;;11.23;7.32;;;;;;;;;;5000818;28;20057;-61
2021/06/07 08:37:52;;;;;;;9.73;6.80;;;;;;;;;;5000647;28;20053;-60
2021/06/07 08:40:18;;;;;;;10.38;7.53;;;;;;;;;;4998768;28;20468;-60
2021/06/07 08:42:44;;;;;;;10.70;7.50;;;;;;;;;;5011839;28;20034;-60
2021/06/07 08:45:12;;;;;;;10.93;7.40;;;;;;;;;;4998197;28;20073;-61
2021/06/07 08:47:42;;;;;;;12.05;7.40;;;;;;;;;;4999019;28;20108;-60
2021/06/07 08:50:09;;;;;;;12.93;8.85;;;;;;;;;;5003559;28;20046;-60
2021/06/07 08:52:35;;;;;;;10.63;7.72;;;;;;;;;;4999904;28;20054;-59
2021/06/07 08:55:04;;;;;;;12.13;8.30;;;;;;;;;;5001299;28;20064;-59
2021/06/07 08:57:30;;;;;;;11.40;8.15;;;;;;;;;;5001125;28;20139;-60
2021/06/07 08:59:55;;;;;;;12.20;8.32;;;;;;;;;;4996967;28;20491;-59
2021/06/07 09:02:32;;;;;;;10.32;7.32;;;;;;;;;;5004201;28;20018;-59
2021/06/07 09:04:58;;;;;;;12.95;9.38;;;;;;;;;;5002843;28;20060;-59
2021/06/07 09:07:23;;;;;;;9.45;8.00;;;;;;;;;;5004365;28;20451;-60
2021/06/07 09:10:08;;;;;;;10.80;8.77;;;;;;;;;;5000196;28;20705;-59
2021/06/07 09:12:34;;;;;;;13.70;9.68;;;;;;;;;;5004232;28;20062;-60
2021/06/07 09:15:00;;;;;;;14.40;9.48;;;;;;;;;;5006614;28;20065;-61
2021/06/07 09:17:27;;;;;;;15.70;10.05;;;;;;;;;;5004835;28;20053;-60
2021/06/07 09:20:14;;;;;;;15.43;9.75;;;;;;;;;;5005576;28;20076;-60
2021/06/07 09:22:47;;;;;;;18.88;11.52;;;;;;;;;;5002278;28;20033;-60
2021/06/07 09:25:15;;;;;;;13.88;9.95;;;;;;;;;;5005336;28;20030;-60
2021/06/07 09:28:03;;;;;;;15.38;10.48;;;;;;;;;;5004470;28;20038;-59
2021/06/07 09:30:32;;;;;;;20.90;11.98;;;;;;;;;;5010048;28;20081;-60
2021/06/07 09:33:21;;;;;;;17.42;10.80;;;;;;;;;;5002434;28;20408;-61
2021/06/07 09:36:14;;;;;;;17.77;11.27;;;;;;;;;;5002984;28;20029;-60
2021/06/07 09:39:11;;;;;;;15.57;10.27;;;;;;;;;;4999780;28;20046;-60
2021/06/07 09:41:58;;;;;;;14.00;9.77;;;;;;;;;;4996147;28;20100;-60
2021/06/07 09:44:31;;;;;;;13.82;10.23;;;;;;;;;;4996265;28;20076;-60
2021/06/07 09:47:25;;;;;;;15.88;10.10;;;;;;;;;;5001224;28;20033;-60
2021/06/07 09:49:55;;;;;;;15.15;9.52;;;;;;;;;;5014628;28;20316;-60
2021/06/07 09:52:25;;;;;;;14.75;9.90;;;;;;;;;;4999932;28;20105;-60
2021/06/07 09:54:59;;;;;;;13.13;9.40;;;;;;;;;;5001686;28;20021;-60
2021/06/07 09:57:50;;;;;;;13.75;10.38;;;;;;;;;;4996711;28;20033;-60
2021/06/07 10:00:42;;;;;;;13.85;9.25;;;;;;;;;;5004728;28;20041;-61
2021/06/07 10:03:29;;;;;;;14.30;9.43;;;;;;;;;;5004044;28;20104;-60
2021/06/07 10:05:58;;;;;;;16.83;10.20;;;;;;;;;;5007414;28;20412;-61
2021/06/07 10:08:25;;;;;;;16.23;10.45;;;;;;;;;;5000664;28;20054;-60
2021/06/07 10:10:52;;;;;;;12.85;9.48;;;;;;;;;;5006346;28;20042;-61
2021/06/07 10:13:17;;;;;;;13.30;9.77;;;;;;;;;;5002089;28;20567;-60
2021/06/07 10:15:46;;;;;;;14.80;9.55;;;;;;;;;;5002547;28;20109;-60
2021/06/07 10:18:20;;;;;;;16.30;10.77;;;;;;;;;;5000107;28;20567;-60
2021/06/07 10:20:54;;;;;;;13.63;10.27;;;;;;;;;;4997155;28;20056;-61
2021/06/07 10:23:22;;;;;;;16.20;10.55;;;;;;;;;;5003374;28;20026;-60
2021/06/07 10:25:48;;;;;;;13.15;9.65;;;;;;;;;;5003776;28;20032;-61
2021/06/07 10:28:15;;;;;;;13.68;10.02;;;;;;;;;;5001263;28;20038;-61
2021/06/07 10:30:46;;;;;;;15.02;10.65;;;;;;;;;;5001645;28;20049;-60
2021/06/07 10:33:29;;;;;;;13.85;10.10;;;;;;;;;;5005107;28;20030;-60
2021/06/07 10:35:56;;;;;;;12.98;9.82;;;;;;;;;;5003671;28;20570;-61
2021/06/07 10:38:34;;;;;;;14.88;10.75;;;;;;;;;;4992334;28;20125;-59
2021/06/07 10:41:27;;;;;;;11.13;8.27;;;;;;;;;;4996652;28;20030;-59
2021/06/07 10:43:55;;;;;;;11.25;8.13;;;;;;;;;;4997210;28;20030;-59
2021/06/07 10:46:28;;;;;;;14.63;8.40;;;;;;;;;;5002089;28;20536;-60
2021/06/07 10:48:55;;;;;;;14.55;9.55;;;;;;;;;;5000739;28;20049;-59
2021/06/07 10:51:29;;;;;;;14.75;10.98;;;;;;;;;;5004009;28;20120;-59
2021/06/07 10:54:34;;;;;;;16.33;10.95;;;;;;;;;;4998640;28;20042;-60
2021/06/07 10:57:36;;;;;;;16.42;12.15;;;;;;;;;;4991547;28;20519;-59
2021/06/07 11:00:09;;;;;;;15.02;11.25;;;;;;;;;;5000879;28;20603;-60
2021/06/07 11:02:38;;;;;;;16.50;12.60;;;;;;;;;;4997244;28;20030;-60
2021/06/07 11:05:08;;;;;;;17.75;12.35;;;;;;;;;;4996878;28;20049;-59
2021/06/07 11:07:35;;;;;;;16.48;11.35;;;;;;;;;;4997906;28;20468;-60
2021/06/07 11:10:20;;;;;;;15.40;11.73;;;;;;;;;;5000900;28;20026;-60
2021/06/07 11:12:51;;;;;;;16.90;11.73;;;;;;;;;;5001991;28;20042;-60
2021/06/07 11:15:27;;;;;;;19.10;13.23;;;;;;;;;;5005435;28;20036;-60
2021/06/07 11:18:22;;;;;;;19.33;14.27;;;;;;;;;;5000255;28;20038;-61
2021/06/07 11:20:50;;;;;;;17.05;12.02;;;;;;;;;;4998426;28;20061;-60
2021/06/07 11:23:23;;;;;;;16.27;11.18;;;;;;;;;;4997277;28;20397;-59
2021/06/07 11:25:54;;;;;;;17.25;12.50;;;;;;;;;;5007318;28;20488;-61
2021/06/07 11:28:43;;;;;;;19.33;12.77;;;;;;;;;;5002255;28;20030;-60
2021/06/07 11:31:14;;;;;;;20.27;12.90;;;;;;;;;;5003188;28;20468;-59
2021/06/07 11:33:56;;;;;;;16.70;11.48;;;;;;;;;;4998213;28;20441;-59
2021/06/07 11:36:46;;;;;;;17.83;12.38;;;;;;;;;;5001019;28;20220;-60
2021/06/07 11:39:30;;;;;;;16.65;12.50;;;;;;;;;;5006831;28;20388;-59
2021/06/07 11:41:56;;;;;;;17.42;12.25;;;;;;;;;;5006145;28;20034;-59
2021/06/07 11:44:46;;;;;;;18.33;12.23;;;;;;;;;;5007187;28;20040;-60
2021/06/07 11:47:48;;;;;;;18.50;12.90;;;;;;;;;;5008139;28;20038;-59
2021/06/07 11:50:33;;;;;;;20.48;14.07;;;;;;;;;;5001092;28;21133;-61
2021/06/07 11:53:17;;;;;;;17.98;12.93;;;;;;;;;;5007882;28;20113;-61
2021/06/07 11:55:44;;;;;;;18.83;12.90;;;;;;;;;;5003308;28;20104;-61
2021/06/07 11:58:20;;;;;;;17.20;13.50;;;;;;;;;;5006407;28;20029;-61
2021/06/07 12:00:51;;;;;;;17.85;13.07;;;;;;;;;;5002679;28;20029;-61
2021/06/07 12:03:22;;;;;;;18.48;13.07;;;;;;;;;;5002035;28;20018;-62
2021/06/07 12:05:47;;;;;;;19.02;13.93;;;;;;;;;;5005938;28;20110;-59
2021/06/07 12:08:15;;;;;;;19.25;14.13;;;;;;;;;;5005156;28;20124;-60
2021/06/07 12:10:43;;;;;;;17.98;13.23;;;;;;;;;;5006794;28;20033;-60
2021/06/07 12:13:26;;;;;;;16.92;13.05;;;;;;;;;;5006039;28;20041;-60
2021/06/07 12:16:00;;;;;;;17.13;13.68;;;;;;;;;;5005290;28;20550;-60
2021/06/07 12:18:32;;;;;;;17.70;13.45;;;;;;;;;;5007567;28;20038;-60
2021/06/07 12:21:06;;;;;;;23.15;14.68;;;;;;;;;;5007189;28;20037;-60
2021/06/07 12:23:34;;;;;;;19.38;14.27;;;;;;;;;;5000459;28;20480;-60
2021/06/07 12:29:23;;;;;;;22.98;15.18;;;;;;;;;;5001991;28;20052;-60
2021/06/07 12:32:00;;;;;;;23.45;15.13;;;;;;;;;;5003470;28;20034;-60
2021/06/07 12:34:26;;;;;;;21.33;15.93;;;;;;;;;;4999608;28;20030;-60
2021/06/07 12:36:51;;;;;;;21.63;16.05;;;;;;;;;;5000649;28;20092;-60
2021/06/07 12:39:18;;;;;;;22.13;16.00;;;;;;;;;;5001221;28;20500;-60
2021/06/07 12:41:45;;;;;;;24.98;17.10;;;;;;;;;;5000911;28;20034;-60
2021/06/07 12:44:11;;;;;;;23.60;17.02;;;;;;;;;;5006427;28;20432;-60
2021/06/07 12:46:56;;;;;;;21.50;15.32;;;;;;;;;;5000111;28;20037;-61
2021/06/07 12:49:31;;;;;;;27.67;18.40;;;;;;;;;;5001326;28;20048;-61
2021/06/07 12:52:02;;;;;;;27.80;18.38;;;;;;;;;;5004638;28;20026;-60
2021/06/07 12:54:31;;;;;;;24.65;17.58;;;;;;;;;;5001344;28;20603;-61
2021/06/07 12:56:59;;;;;;;23.80;17.23;;;;;;;;;;4999721;28;20049;-60
2021/06/07 12:59:32;;;;;;;31.77;20.50;;;;;;;;;;5004785;28;20397;-61
2021/06/07 13:01:58;;;;;;;34.53;22.15;;;;;;;;;;4998282;28;20045;-60
2021/06/07 13:04:39;;;;;;;25.10;17.10;;;;;;;;;;5006434;28;20030;-59
2021/06/07 13:07:18;;;;;;;22.05;16.67;;;;;;;;;;5000221;28;20029;-60
2021/06/07 13:09:44;;;;;;;26.50;18.98;;;;;;;;;;4999655;28;20034;-60
2021/06/07 13:12:26;;;;;;;23.10;16.48;;;;;;;;;;5000540;28;20488;-60
2021/06/07 13:14:53;;;;;;;24.60;17.58;;;;;;;;;;5000700;28;20349;-60
2021/06/07 13:17:20;;;;;;;26.10;18.23;;;;;;;;;;5002669;28;20033;-60
2021/06/07 13:19:53;;;;;;;23.73;17.67;;;;;;;;;;5002379;28;20113;-60
2021/06/07 13:22:20;;;;;;;26.00;18.02;;;;;;;;;;5004002;28;20038;-60
2021/06/07 13:24:47;;;;;;;28.23;18.88;;;;;;;;;;5005710;28;20558;-60
2021/06/07 13:27:15;;;;;;;24.23;17.85;;;;;;;;;;4997263;28;20037;-60
2021/06/07 13:29:41;;;;;;;26.50;18.42;;;;;;;;;;5005617;28;20495;-60
2021/06/07 13:32:07;;;;;;;25.08;17.63;;;;;;;;;;5003237;28;20172;-60
2021/06/07 13:34:40;;;;;;;26.65;18.92;;;;;;;;;;4999935;28;20038;-60
2021/06/07 13:37:11;;;;;;;27.48;19.50;;;;;;;;;;4996285;28;20092;-60
2021/06/07 13:39:38;;;;;;;28.75;19.90;;;;;;;;;;4997992;28;20459;-60
2021/06/07 13:42:05;;;;;;;25.83;18.17;;;;;;;;;;5001003;28;20080;-61
2021/06/07 13:44:57;;;;;;;29.75;20.00;;;;;;;;;;4996429;28;20092;-61
2021/06/07 13:47:25;;;;;;;25.65;17.95;;;;;;;;;;5002229;28;20404;-61
2021/06/07 13:50:05;;;;;;;24.87;18.07;;;;;;;;;;5003599;28;20113;-60
2021/06/07 13:52:43;;;;;;;26.75;19.25;;;;;;;;;;4998736;28;20590;-61
2021/06/07 13:55:30;;;;;;;26.25;19.08;;;;;;;;;;5004904;28;20069;-60
2021/06/07 13:58:16;;;;;;;24.52;17.73;;;;;;;;;;4995119;28;20034;-61
2021/06/07 14:00:45;;;;;;;22.98;17.73;;;;;;;;;;4998442;28;20030;-61
2021/06/07 14:03:16;;;;;;;23.05;17.42;;;;;;;;;;5004587;28;20030;-61
2021/06/07 14:05:43;;;;;;;23.77;17.88;;;;;;;;;;5000617;28;20163;-61
2021/06/07 14:08:12;;;;;;;22.55;17.55;;;;;;;;;;4995774;28;20594;-60
2021/06/07 14:10:49;;;;;;;23.48;18.42;;;;;;;;;;5001733;28;20022;-61
2021/06/07 14:13:14;;;;;;;22.20;16.35;;;;;;;;;;5006981;28;20102;-61
2021/06/07 14:15:40;;;;;;;24.88;18.40;;;;;;;;;;5002969;28;20054;-61
2021/06/07 14:18:05;;;;;;;23.55;15.82;;;;;;;;;;5003378;28;20037;-61
2021/06/07 14:20:31;;;;;;;21.27;16.42;;;;;;;;;;4996038;28;20077;-61
2021/06/07 14:25:41;;;;;;;20.63;16.42;;;;;;;;;;4997657;28;20100;-61
2021/06/07 14:28:10;;;;;;;19.65;15.55;;;;;;;;;;5005322;28;20468;-61
2021/06/07 14:30:37;;;;;;;20.17;16.27;;;;;;;;;;4996967;28;20093;-61
2021/06/07 14:33:03;;;;;;;19.45;15.90;;;;;;;;;;5001301;28;20118;-61
2021/06/07 14:35:31;;;;;;;19.25;15.52;;;;;;;;;;4998684;28;20107;-61